Cape Flattery, Washington
Current Conditions -  °F | °C
As of 6:53 PM on Thursday 27 Nov 2014 (Local Time) from KUIL Reporting Station
Haze Haze  
Wind Chill: 54°   Ceiling: 400
Heat Index: 54°   Visibility: 4mi
Dew Point: 54°   Wind: 14mph
Humidity: 100%   Direction: 200°SSW
Pressure: 29.68"   Gusts: 24mph
Location:  48.3685°N, 124.623°W
Report Text: KUIL 280253Z AUTO 20012G21KT 4SM BR OVC004 12/12 A2968 RMK AO2 RAE08 SLP052 P0001 60008 T01220122 56012
Loading
Personal Weather Stations






























Interactive Weather Map New forecast layout! Learn more

10-Day Weather Forecast

Advertisements
Track Severe Weather on mobile